Time;durP1;ratioP1;P1;durP2;ratioP2;P2;SDS_P1;SDS_P2;PMS_P1;PMS_P2;Temp;Humidity;BMP_temperature;BMP_pressure;BME280_temperature;BME280_humidity;BME280_pressure;Samples;Min_cycle;Max_cycle;Signal;HPM_P1;HPM_P2
2023/01/26 00:04:12;;;;;;;34.45;17.52;;;;;;;2.15;78.86;98364.59;10580849;27;20465;-76
2023/01/26 00:09:33;;;;;;;29.60;15.77;;;;;;;2.14;78.67;98356.84;10595180;27;20043;-76
2023/01/26 00:14:54;;;;;;;32.78;16.98;;;;;;;2.14;78.70;98363.09;10580706;27;20039;-76
2023/01/26 00:20:15;;;;;;;29.23;16.02;;;;;;;2.13;78.92;98350.59;10594693;28;20089;-76
2023/01/26 00:25:39;;;;;;;32.83;16.00;;;;;;;2.12;78.75;98340.09;10602005;27;20050;-76
2023/01/26 00:31:04;;;;;;;28.52;13.38;;;;;;;2.14;79.05;98346.56;10617962;27;20066;-76
2023/01/26 00:36:26;;;;;;;32.55;15.55;;;;;;;2.14;79.24;98332.06;10588918;27;20050;-76
2023/01/26 00:42:05;;;;;;;33.45;15.93;;;;;;;2.15;78.71;98334.28;10603345;27;20043;-76
2023/01/26 00:47:27;;;;;;;29.83;15.55;;;;;;;2.18;79.06;98321.47;10608437;27;20116;-76
2023/01/26 00:52:49;;;;;;;30.00;14.27;;;;;;;2.21;78.57;98323.16;10574552;27;20038;-76
2023/01/26 00:58:10;;;;;;;31.05;15.70;;;;;;;2.23;78.43;98315.16;10588273;27;20481;-76
2023/01/26 01:03:31;;;;;;;32.42;14.25;;;;;;;2.20;78.49;98327.19;10573477;27;20404;-76
2023/01/26 01:08:52;;;;;;;29.10;15.13;;;;;;;2.20;78.43;98316.91;10527729;28;20048;-75
2023/01/26 01:14:13;;;;;;;28.40;14.48;;;;;;;2.17;78.41;98317.97;10531271;28;20093;-76
2023/01/26 01:19:34;;;;;;;35.35;15.98;;;;;;;2.18;78.86;98321.47;10517282;28;20093;-76
2023/01/26 01:24:54;;;;;;;30.45;15.68;;;;;;;2.17;78.49;98317.97;10516967;28;20048;-76
2023/01/26 01:30:16;;;;;;;30.92;16.00;;;;;;;2.14;78.60;98327.28;10500393;28;20048;-76
2023/01/26 01:35:37;;;;;;;27.80;13.32;;;;;;;2.07;78.53;98329.91;10513897;28;20064;-76
2023/01/26 01:40:58;;;;;;;26.48;13.13;;;;;;;2.07;78.37;98322.38;10515232;28;20386;-76
2023/01/26 01:46:19;;;;;;;26.23;12.40;;;;;;;2.06;78.66;98309.88;10544157;28;20051;-76
2023/01/26 01:51:44;;;;;;;30.73;13.80;;;;;;;1.97;78.58;98313.75;10614740;27;20046;-75
2023/01/26 01:57:14;;;;;;;30.83;15.00;;;;;;;1.97;78.29;98300.00;10572316;27;20096;-76
2023/01/26 02:02:35;;;;;;;31.63;15.32;;;;;;;2.07;78.75;98294.09;10587717;27;20400;-76
2023/01/26 02:07:56;;;;;;;29.92;14.80;;;;;;;2.11;78.22;98284.25;10585277;27;20449;-76
2023/01/26 02:13:17;;;;;;;30.55;15.63;;;;;;;2.13;78.45;98279.00;10585247;27;20084;-76
2023/01/26 02:18:38;;;;;;;36.08;15.95;;;;;;;2.14;78.04;98280.47;10599215;27;20397;-76
2023/01/26 02:24:27;;;;;;;31.15;15.32;;;;;;;2.15;78.29;98262.69;10601249;27;20043;-76
2023/01/26 02:29:48;;;;;;;32.83;15.10;;;;;;;2.14;78.22;98260.44;10626943;27;20049;-75
2023/01/26 02:35:10;;;;;;;31.50;14.07;;;;;;;2.16;78.09;98266.19;10627017;27;20046;-76
2023/01/26 02:40:37;;;;;;;30.73;14.50;;;;;;;2.06;78.09;98268.59;10626940;27;20059;-76
2023/01/26 02:45:58;;;;;;;30.17;12.95;;;;;;;2.06;77.90;98259.56;10626339;27;20039;-76
2023/01/26 02:51:20;;;;;;;30.52;14.27;;;;;;;2.03;78.17;98249.59;10626579;27;20042;-76
2023/01/26 02:56:40;;;;;;;34.25;16.25;;;;;;;2.05;78.66;98247.81;10625775;27;20499;-76
2023/01/26 03:02:01;;;;;;;30.08;14.27;;;;;;;2.10;78.47;98238.72;10625814;27;20087;-76
2023/01/26 03:07:23;;;;;;;33.40;15.93;;;;;;;2.01;78.67;98237.09;10625588;27;20049;-76
2023/01/26 03:12:44;;;;;;;37.22;17.23;;;;;;;1.99;78.46;98236.88;10625392;27;20499;-76
2023/01/26 03:29:30;;;;;;;36.67;16.80;;;;;;;2.00;78.84;98210.81;10630084;27;20084;-76
2023/01/26 03:34:53;;;;;;;38.13;16.70;;;;;;;2.06;78.47;98205.25;10625255;27;20043;-76
2023/01/26 03:57:14;;;;;;;44.10;18.67;;;;;;;2.10;78.50;98191.16;10642812;27;20400;-76
2023/01/26 04:08:21;;;;;;;34.53;17.88;;;;;;;1.90;78.30;98187.72;10628600;27;20042;-75
2023/01/26 04:25:08;;;;;;;34.65;15.98;;;;;;;1.57;78.79;98185.50;10642998;27;20122;-76
2023/01/26 04:30:28;;;;;;;33.80;14.43;;;;;;;1.57;79.18;98186.25;10621218;27;20058;-76
2023/01/26 04:35:51;;;;;;;37.17;16.83;;;;;;;1.52;79.05;98175.31;10619074;27;20054;-76
2023/01/26 04:41:13;;;;;;;39.17;16.83;;;;;;;1.63;79.36;98173.13;10626792;27;20446;-76
2023/01/26 04:46:39;;;;;;;35.40;17.35;;;;;;;1.53;79.70;98165.78;10608614;27;20061;-76
2023/01/26 04:52:00;;;;;;;33.83;16.50;;;;;;;1.42;79.56;98164.69;10624049;27;20035;-76
2023/01/26 04:57:23;;;;;;;31.27;15.27;;;;;;;1.42;79.43;98156.44;10622512;27;20050;-76
2023/01/26 05:02:45;;;;;;;34.13;16.05;;;;;;;1.46;79.56;98158.16;10611526;27;20038;-76
2023/01/26 05:08:07;;;;;;;38.08;18.52;;;;;;;1.47;79.86;98159.63;10620427;27;20094;-76
2023/01/26 05:13:28;;;;;;;40.25;17.10;;;;;;;1.41;79.95;98157.69;10613639;27;20031;-76
2023/01/26 05:19:00;;;;;;;33.15;14.88;;;;;;;1.43;79.53;98166.16;10629337;27;20046;-77
2023/01/26 05:24:41;;;;;;;35.95;16.15;;;;;;;1.39;79.50;98170.50;10637378;27;20038;-76
2023/01/26 05:30:29;;;;;;;45.80;18.90;;;;;;;1.24;79.70;98159.94;10641715;27;20034;-77
2023/01/26 05:35:53;;;;;;;36.83;16.70;;;;;;;1.19;79.86;98152.53;10626695;27;20091;-76
2023/01/26 05:41:14;;;;;;;34.67;16.42;;;;;;;1.15;80.46;98157.56;10632784;27;20046;-76
2023/01/26 05:46:54;;;;;;;32.30;15.15;;;;;;;1.29;80.36;98161.13;10651354;27;20497;-76
2023/01/26 05:52:17;;;;;;;34.47;15.10;;;;;;;1.13;79.92;98157.34;10617343;27;20035;-76
2023/01/26 05:57:38;;;;;;;28.00;13.20;;;;;;;1.12;79.75;98158.63;10629951;27;20171;-76
2023/01/26 06:03:01;;;;;;;26.88;13.38;;;;;;;1.11;80.32;98152.38;10626886;27;20495;-76
2023/01/26 06:08:22;;;;;;;32.00;14.88;;;;;;;1.17;80.36;98149.56;10612289;27;20030;-76
2023/01/26 06:14:04;;;;;;;32.17;14.85;;;;;;;1.25;79.95;98152.44;10620831;27;20046;-76
2023/01/26 06:19:26;;;;;;;29.48;12.85;;;;;;;1.20;80.03;98145.75;10626098;27;20039;-76
2023/01/26 06:24:51;;;;;;;28.83;12.82;;;;;;;1.27;79.48;98156.16;10622490;27;20492;-77
2023/01/26 06:30:14;;;;;;;29.05;12.93;;;;;;;1.27;79.76;98150.66;10624446;27;20035;-76
2023/01/26 06:35:35;;;;;;;27.33;13.23;;;;;;;1.29;79.65;98141.88;10608283;27;20461;-76
2023/01/26 06:41:01;;;;;;;32.37;14.23;;;;;;;1.33;79.79;98139.56;10624909;27;20399;-76
2023/01/26 06:46:24;;;;;;;27.45;12.75;;;;;;;1.42;79.80;98145.44;10612341;27;20400;-76
2023/01/26 06:52:25;;;;;;;24.88;12.52;;;;;;;1.42;79.06;98137.19;10611041;27;20031;-76
2023/01/26 06:57:49;;;;;;;24.38;12.20;;;;;;;1.44;79.82;98148.38;10638045;27;20042;-76
2023/01/26 07:03:38;;;;;;;26.15;13.02;;;;;;;1.57;80.08;98146.97;10636024;27;20046;-76
2023/01/26 07:09:00;;;;;;;26.00;12.68;;;;;;;1.64;79.27;98146.34;10622288;27;20400;-76
2023/01/26 07:14:21;;;;;;;31.25;14.10;;;;;;;1.63;79.35;98150.38;10625508;27;20104;-76
2023/01/26 07:19:42;;;;;;;27.33;12.10;;;;;;;1.68;79.32;98135.78;10611258;27;20392;-76
2023/01/26 07:25:03;;;;;;;25.42;13.05;;;;;;;1.51;78.33;98132.56;10624994;27;20114;-76
2023/01/26 07:30:24;;;;;;;26.45;12.35;;;;;;;1.40;78.92;98134.22;10625158;27;20091;-76
2023/01/26 07:35:46;;;;;;;32.40;14.02;;;;;;;1.35;78.69;98146.06;10610040;27;20046;-76
2023/01/26 07:41:10;;;;;;;30.08;14.15;;;;;;;1.42;79.41;98139.94;10638529;27;20043;-76
2023/01/26 07:46:31;;;;;;;27.95;13.20;;;;;;;1.50;79.29;98147.56;10645165;27;20038;-76
2023/01/26 07:51:52;;;;;;;31.67;14.48;;;;;;;1.59;78.98;98147.19;10624148;27;20050;-76
2023/01/26 07:57:13;;;;;;;29.25;13.40;;;;;;;1.72;79.59;98147.97;10609909;27;20042;-76
2023/01/26 08:02:34;;;;;;;30.23;14.00;;;;;;;1.79;79.17;98141.09;10609464;27;20042;-76
2023/01/26 08:07:59;;;;;;;29.10;14.27;;;;;;;1.82;78.77;98145.53;10637861;27;20069;-76
2023/01/26 08:13:20;;;;;;;31.45;14.15;;;;;;;1.85;78.93;98139.00;10622508;27;20051;-76
2023/01/26 08:18:55;;;;;;;30.50;15.27;;;;;;;1.85;78.26;98136.25;10613577;27;20039;-77
2023/01/26 08:24:16;;;;;;;29.13;13.38;;;;;;;1.82;78.37;98131.78;10637737;27;20385;-77
2023/01/26 08:29:37;;;;;;;30.27;15.00;;;;;;;1.87;77.63;98119.22;10620508;27;20035;-77
2023/01/26 08:34:58;;;;;;;31.35;14.85;;;;;;;1.89;78.58;98117.41;10608294;28;20035;-77
2023/01/26 08:40:20;;;;;;;31.00;13.90;;;;;;;1.95;78.36;98131.09;10566120;28;20385;-77
2023/01/26 08:45:40;;;;;;;26.38;13.13;;;;;;;1.97;78.53;98123.78;10600441;27;20039;-76
2023/01/26 08:51:02;;;;;;;29.45;13.02;;;;;;;2.03;78.50;98128.44;10631477;27;20381;-77
2023/01/26 08:56:23;;;;;;;23.92;12.27;;;;;;;2.08;77.67;98122.09;10629286;27;20039;-77
2023/01/26 09:01:44;;;;;;;26.33;12.60;;;;;;;2.06;77.68;98141.91;10611367;27;20106;-77
2023/01/26 09:07:05;;;;;;;26.23;12.20;;;;;;;2.12;78.25;98133.53;10601482;27;20069;-76
2023/01/26 09:12:26;;;;;;;20.38;10.23;;;;;;;2.18;78.14;98136.94;10587753;27;20046;-77
2023/01/26 09:17:48;;;;;;;18.80;9.52;;;;;;;2.18;77.60;98131.44;10604594;27;20039;-77
2023/01/26 09:23:11;;;;;;;22.27;10.02;;;;;;;2.18;77.71;98132.16;10604702;27;20104;-76
2023/01/26 09:28:32;;;;;;;22.10;10.43;;;;;;;2.22;77.75;98129.84;10585618;27;20480;-77
2023/01/26 09:33:53;;;;;;;20.58;10.43;;;;;;;2.30;78.05;98132.69;10628481;27;20373;-77
2023/01/26 09:39:13;;;;;;;18.55;9.40;;;;;;;2.34;77.06;98124.88;10641376;27;20039;-77
2023/01/26 09:44:51;;;;;;;17.52;8.10;;;;;;;2.38;76.27;98122.53;10641317;27;20042;-78
2023/01/26 09:50:21;;;;;;;19.08;8.85;;;;;;;2.46;76.50;98108.84;10643019;27;20039;-77
2023/01/26 09:55:44;;;;;;;16.13;8.45;;;;;;;2.57;77.38;98112.13;10625121;27;20038;-77
2023/01/26 10:01:13;;;;;;;19.17;9.60;;;;;;;2.64;77.11;98110.75;10631839;27;20397;-77
2023/01/26 10:06:34;;;;;;;21.58;10.07;;;;;;;2.70;76.27;98119.66;10641112;27;20039;-77
2023/01/26 10:12:14;;;;;;;21.88;11.48;;;;;;;2.71;76.53;98110.09;10642716;27;20046;-76
2023/01/26 10:17:42;;;;;;;22.55;11.15;;;;;;;2.77;76.40;98112.72;10639353;27;20045;-77
2023/01/26 10:23:26;;;;;;;20.25;10.05;;;;;;;2.81;76.80;98107.66;10640652;27;20047;-77
2023/01/26 10:28:49;;;;;;;21.27;10.13;;;;;;;2.77;76.36;98098.94;10641535;27;20449;-77
2023/01/26 10:34:16;;;;;;;20.15;9.50;;;;;;;2.77;76.02;98096.19;10598916;27;20461;-77
2023/01/26 10:39:39;;;;;;;17.38;9.02;;;;;;;2.75;75.95;98096.00;10584465;27;20035;-77
2023/01/26 10:45:02;;;;;;;17.13;8.90;;;;;;;2.77;76.13;98096.19;10598359;27;20046;-77
2023/01/26 10:50:23;;;;;;;17.25;8.55;;;;;;;2.76;75.95;98105.75;10583930;27;20039;-77
2023/01/26 10:55:59;;;;;;;18.25;9.32;;;;;;;2.76;76.41;98100.22;10583297;27;20504;-76
2023/01/26 11:01:26;;;;;;;16.38;8.40;;;;;;;2.74;75.93;98102.78;10617101;27;20468;-77
2023/01/26 11:06:47;;;;;;;16.45;8.18;;;;;;;2.76;76.16;98100.22;10627979;27;20046;-77
2023/01/26 11:12:10;;;;;;;19.67;9.60;;;;;;;2.70;75.35;98099.59;10612957;27;20411;-77
2023/01/26 11:17:52;;;;;;;17.17;8.85;;;;;;;2.67;75.81;98086.88;10613950;27;20039;-78
2023/01/26 11:23:21;;;;;;;20.15;9.65;;;;;;;2.58;76.21;98075.03;10622708;27;20050;-76
2023/01/26 11:29:05;;;;;;;21.42;10.60;;;;;;;2.62;75.92;98079.50;10644994;27;20045;-76
2023/01/26 11:34:40;;;;;;;19.90;10.48;;;;;;;2.64;75.68;98071.41;10626065;27;20027;-77
2023/01/26 11:40:25;;;;;;;19.45;10.23;;;;;;;2.59;75.61;98071.00;10658324;27;20050;-76
2023/01/26 11:46:05;;;;;;;21.50;10.75;;;;;;;2.59;75.67;98068.22;10627023;27;20373;-75
2023/01/26 11:51:35;;;;;;;24.05;11.48;;;;;;;2.59;76.01;98059.97;10653339;27;20046;-77
2023/01/26 11:57:10;;;;;;;19.02;9.85;;;;;;;2.52;75.59;98063.38;10639574;27;20050;-77
2023/01/26 12:02:33;;;;;;;16.55;9.23;;;;;;;2.59;76.05;98059.22;10654896;27;20039;-76
2023/01/26 12:08:22;;;;;;;23.50;11.55;;;;;;;2.54;75.87;98055.31;10627247;27;20121;-76
2023/01/26 12:13:43;;;;;;;22.75;10.70;;;;;;;2.42;75.85;98045.06;10657627;27;20043;-76
2023/01/26 12:19:27;;;;;;;20.17;10.02;;;;;;;2.21;76.32;98042.22;10622687;27;20043;-76
2023/01/26 12:24:55;;;;;;;20.10;9.27;;;;;;;2.18;76.61;98026.75;10639009;27;20070;-76
2023/01/26 12:30:48;;;;;;;19.20;8.57;;;;;;;2.14;76.64;98023.59;10631610;27;20065;-77
2023/01/26 12:36:33;;;;;;;16.23;8.27;;;;;;;2.13;76.93;98019.38;10648592;27;20066;-77
2023/01/26 12:42:18;;;;;;;14.27;7.68;;;;;;;2.24;77.54;98014.38;10645013;27;20051;-77
2023/01/26 12:47:41;;;;;;;13.95;7.93;;;;;;;2.38;76.93;98006.06;10636892;27;20043;-77
2023/01/26 12:53:19;;;;;;;16.48;8.75;;;;;;;2.42;76.14;98006.50;10652120;27;20043;-76
2023/01/26 12:58:43;;;;;;;13.90;8.52;;;;;;;2.43;76.59;98003.22;10652789;27;20035;-77
2023/01/26 13:04:07;;;;;;;;;;;;;;;2.44;76.57;98001.94;10583771;28;20039;-77
2023/01/26 13:09:28;;;;;;;16.05;8.82;;;;;;;2.43;77.02;98003.22;10594312;28;19931;-77
2023/01/26 13:14:48;;;;;;;15.55;8.52;;;;;;;2.41;76.58;97999.50;10579702;28;20473;-77
2023/01/26 13:20:43;;;;;;;17.15;8.52;;;;;;;2.22;78.16;97999.63;10623329;27;20045;-76
2023/01/26 13:26:22;;;;;;;17.48;9.38;;;;;;;2.26;77.44;97989.03;10630704;27;20043;-76
2023/01/26 13:31:43;;;;;;;18.17;9.95;;;;;;;2.12;77.39;97990.31;10655268;27;20440;-75
2023/01/26 13:37:18;;;;;;;18.80;9.98;;;;;;;2.14;77.60;97993.31;10643356;27;20039;-76
2023/01/26 13:42:58;;;;;;;13.38;7.82;;;;;;;2.22;77.23;97985.84;10629479;27;20054;-75
2023/01/26 13:48:44;;;;;;;17.55;9.45;;;;;;;2.12;77.31;97982.06;10642890;27;20050;-75
2023/01/26 13:54:13;;;;;;;18.42;9.80;;;;;;;2.10;77.19;97987.38;10642589;27;20164;-75
2023/01/26 13:59:34;;;;;;;18.38;10.38;;;;;;;2.01;77.46;97986.50;10643143;27;20050;-75
2023/01/26 14:04:56;;;;;;;20.83;9.95;;;;;;;2.03;77.27;97988.00;10672115;27;20057;-75
2023/01/26 14:10:18;;;;;;;16.83;9.30;;;;;;;2.09;77.00;97969.34;10628394;27;20074;-75
2023/01/26 14:15:39;;;;;;;17.45;8.48;;;;;;;2.15;77.61;97973.50;10626657;27;20042;-75
2023/01/26 14:21:21;;;;;;;18.27;9.15;;;;;;;2.18;77.41;97966.91;10641766;27;20108;-75
2023/01/26 14:26:42;;;;;;;20.33;10.18;;;;;;;2.10;77.71;97979.09;10641439;27;20064;-74
2023/01/26 14:32:04;;;;;;;18.42;9.82;;;;;;;2.13;77.08;97987.06;10627096;27;20039;-75
2023/01/26 14:37:25;;;;;;;19.08;9.88;;;;;;;2.11;77.23;97977.81;10626381;27;20035;-75
2023/01/26 14:42:47;;;;;;;19.92;9.68;;;;;;;2.15;77.51;97986.53;10597548;27;20381;-75
2023/01/26 14:48:08;;;;;;;17.95;10.40;;;;;;;2.06;77.88;97978.69;10584233;27;20058;-75
2023/01/26 14:53:29;;;;;;;17.95;9.38;;;;;;;2.04;77.67;97987.50;10597971;27;20053;-75
2023/01/26 14:58:51;;;;;;;17.73;8.98;;;;;;;2.00;77.39;97993.31;10597315;27;20069;-75
2023/01/26 15:04:24;;;;;;;18.35;9.48;;;;;;;2.05;77.86;97996.50;10596968;27;20043;-75
2023/01/26 15:09:51;;;;;;;19.10;9.77;;;;;;;1.99;77.94;97989.06;10596031;27;20388;-76
2023/01/26 15:15:12;;;;;;;15.40;8.20;;;;;;;2.00;77.80;97996.06;10597099;27;20034;-77
2023/01/26 15:20:33;;;;;;;16.77;8.55;;;;;;;1.95;77.33;97988.66;10568724;27;20035;-78
2023/01/26 15:25:55;;;;;;;17.25;9.00;;;;;;;1.96;77.35;97978.38;10618177;27;20511;-78
2023/01/26 15:31:33;;;;;;;16.52;8.15;;;;;;;1.92;78.41;97984.19;10629736;27;20468;-78
2023/01/26 15:36:56;;;;;;;16.23;8.55;;;;;;;1.91;77.76;97993.72;10630580;27;20053;-77
2023/01/26 15:42:29;;;;;;;18.43;7.90;;;;;;;1.94;77.81;97992.69;10630823;27;20050;-77
2023/01/26 15:47:51;;;;;;;16.88;8.90;;;;;;;1.85;78.03;97995.13;10630817;27;20352;-78
2023/01/26 15:53:18;;;;;;;18.73;8.05;;;;;;;1.88;77.87;97986.53;10624246;27;20038;-76
2023/01/26 15:58:40;;;;;;;17.77;9.15;;;;;;;1.88;77.66;97989.28;10638986;27;20035;-77
2023/01/26 16:04:01;;;;;;;18.13;9.48;;;;;;;1.89;77.93;97995.53;10638157;27;20046;-76
2023/01/26 16:09:22;;;;;;;22.00;9.45;;;;;;;1.91;78.04;97996.47;10638066;27;20499;-76
2023/01/26 16:14:43;;;;;;;19.02;8.77;;;;;;;1.88;78.02;97994.78;10623481;27;20042;-75
2023/01/26 16:20:04;;;;;;;18.83;9.50;;;;;;;1.81;78.10;97989.91;10637375;27;20126;-75
2023/01/26 16:25:26;;;;;;;18.08;8.02;;;;;;;1.88;77.81;97992.03;10652322;27;20050;-75
2023/01/26 16:30:48;;;;;;;16.15;8.35;;;;;;;1.86;77.44;97991.09;10623160;27;20042;-75
2023/01/26 16:36:11;;;;;;;14.50;7.45;;;;;;;1.90;78.19;97997.00;10637678;27;20039;-77
2023/01/26 16:41:32;;;;;;;17.42;8.52;;;;;;;1.86;78.12;98002.09;10637402;27;20426;-76
2023/01/26 16:46:53;;;;;;;14.05;7.05;;;;;;;1.80;78.10;97999.44;10637193;27;20054;-77
2023/01/26 16:52:14;;;;;;;13.68;6.97;;;;;;;1.80;78.23;98004.97;10649849;27;20507;-77
2023/01/26 16:57:35;;;;;;;15.65;8.25;;;;;;;1.88;78.14;98003.06;10622601;27;20118;-77
2023/01/26 17:02:55;;;;;;;18.63;8.32;;;;;;;1.92;78.41;98000.72;10622530;27;20415;-76
2023/01/26 17:08:18;;;;;;;17.52;8.27;;;;;;;1.95;78.16;98005.19;10630973;27;20047;-76
2023/01/26 17:13:39;;;;;;;18.42;8.70;;;;;;;1.91;78.38;98009.50;10630564;27;20046;-77
2023/01/26 17:18:59;;;;;;;16.63;7.43;;;;;;;1.91;78.23;98004.75;10629911;27;20418;-77
2023/01/26 17:24:20;;;;;;;17.83;8.40;;;;;;;1.81;78.69;98000.94;10629830;27;20046;-77
2023/01/26 17:29:41;;;;;;;19.42;9.15;;;;;;;1.77;78.63;97997.75;10634102;27;20039;-76
2023/01/26 17:35:02;;;;;;;16.92;8.80;;;;;;;1.82;78.71;98005.16;10632622;27;20049;-76
2023/01/26 17:40:23;;;;;;;16.63;9.05;;;;;;;1.91;78.57;98001.25;10632314;27;20050;-77
2023/01/26 17:45:44;;;;;;;20.70;9.60;;;;;;;1.93;78.48;98001.44;10628949;27;20042;-78
2023/01/26 17:51:06;;;;;;;17.77;9.70;;;;;;;1.93;78.50;98002.22;10643434;27;20089;-77
2023/01/26 17:56:26;;;;;;;21.92;10.52;;;;;;;1.95;78.72;97999.66;10671609;27;20034;-77
2023/01/26 18:01:47;;;;;;;19.15;9.32;;;;;;;1.96;78.65;98014.19;10642467;27;20042;-77
2023/01/26 18:07:09;;;;;;;22.23;11.55;;;;;;;1.96;79.36;98003.16;10628522;27;20408;-76
2023/01/26 18:12:30;;;;;;;23.88;11.80;;;;;;;1.95;79.61;98007.19;10628745;27;20046;-76
2023/01/26 18:17:51;;;;;;;20.80;11.77;;;;;;;2.01;79.08;98010.56;10627135;27;20099;-76
2023/01/26 18:23:12;;;;;;;22.20;11.43;;;;;;;1.91;79.40;98009.50;10641935;27;20046;-76
2023/01/26 18:28:33;;;;;;;18.23;9.85;;;;;;;1.87;79.47;98015.34;10627505;27;20472;-76
2023/01/26 18:33:54;;;;;;;17.10;8.70;;;;;;;1.85;79.92;98020.63;10627089;27;20108;-76
2023/01/26 18:39:16;;;;;;;14.40;9.00;;;;;;;1.82;79.69;98013.41;10626951;27;20035;-77
2023/01/26 18:44:36;;;;;;;15.65;8.82;;;;;;;1.80;80.62;98007.72;10640928;27;20039;-77
2023/01/26 18:49:57;;;;;;;15.13;8.55;;;;;;;1.81;79.96;98011.94;10626493;27;20054;-78
2023/01/26 18:55:18;;;;;;;15.50;9.05;;;;;;;1.79;80.72;98011.00;10626265;27;20045;-77
2023/01/26 19:00:39;;;;;;;15.82;8.32;;;;;;;1.75;80.07;98010.59;10625811;27;20083;-76
2023/01/26 19:06:03;;;;;;;17.50;9.70;;;;;;;1.60;80.88;98016.59;10640333;27;20055;-77
2023/01/26 19:11:26;;;;;;;16.45;8.35;;;;;;;1.50;80.55;98004.50;10640013;27;20395;-76
2023/01/26 19:16:47;;;;;;;16.77;8.77;;;;;;;1.50;80.45;98007.25;10654152;27;20091;-76
2023/01/26 19:22:09;;;;;;;17.88;8.68;;;;;;;1.54;80.82;98010.44;10653902;27;20633;-76
2023/01/26 19:27:30;;;;;;;16.65;8.52;;;;;;;1.55;80.84;98001.69;10653436;27;20042;-76
2023/01/26 19:38:32;;;;;;;17.45;8.85;;;;;;;1.48;80.92;98007.06;10613194;27;20494;-77
2023/01/26 19:43:53;;;;;;;17.50;9.07;;;;;;;1.40;80.74;98010.41;10582061;28;20056;-77
2023/01/26 19:49:16;;;;;;;16.50;8.45;;;;;;;1.41;81.00;98006.41;10582014;28;20052;-76
2023/01/26 19:54:37;;;;;;;19.55;8.93;;;;;;;1.43;81.06;98008.63;10553976;28;20036;-77
2023/01/26 19:59:57;;;;;;;16.45;8.30;;;;;;;1.44;81.14;98012.84;10567178;28;20051;-76
2023/01/26 20:05:18;;;;;;;18.98;9.18;;;;;;;1.46;80.93;98017.84;10552886;28;20047;-77
2023/01/26 20:10:39;;;;;;;17.88;9.02;;;;;;;1.47;81.05;98011.06;10552777;28;20054;-76
2023/01/26 20:16:00;;;;;;;17.40;8.77;;;;;;;1.43;81.42;98017.63;10552530;28;20040;-76
2023/01/26 20:21:21;;;;;;;15.63;8.57;;;;;;;1.41;80.78;98009.16;10552763;28;20044;-77
2023/01/26 20:26:43;;;;;;;20.08;10.38;;;;;;;1.41;81.46;98019.41;10552471;28;20378;-77
2023/01/26 20:32:04;;;;;;;16.60;8.27;;;;;;;1.41;80.61;98014.66;10566823;28;20507;-79
2023/01/26 20:37:24;;;;;;;17.17;8.63;;;;;;;1.34;80.87;98015.25;10552592;28;20044;-77
2023/01/26 20:42:45;;;;;;;17.00;7.85;;;;;;;1.39;81.55;98027.47;10602653;27;20493;-77
2023/01/26 20:48:06;;;;;;;15.20;7.72;;;;;;;1.39;81.30;98022.69;10590516;27;20110;-77
2023/01/26 20:53:28;;;;;;;13.55;7.38;;;;;;;1.38;81.73;98023.97;10587359;27;20529;-77
2023/01/26 20:58:50;;;;;;;15.93;8.50;;;;;;;1.32;81.72;98020.56;10584221;27;20073;-77
2023/01/26 21:04:11;;;;;;;18.77;8.98;;;;;;;1.24;81.69;98007.94;10600608;27;20089;-77
2023/01/26 21:09:32;;;;;;;12.38;6.65;;;;;;;1.12;81.61;98010.88;10600859;27;20480;-77
2023/01/26 21:15:06;;;;;;;16.67;7.30;;;;;;;1.14;81.82;98013.09;10609225;27;20039;-77
2023/01/26 21:20:27;;;;;;;16.90;8.27;;;;;;;1.20;82.86;98005.50;10599696;27;20101;-77
2023/01/26 21:25:48;;;;;;;14.63;7.18;;;;;;;1.27;82.07;98007.66;10572909;27;20473;-77
2023/01/26 21:31:15;;;;;;;15.25;8.35;;;;;;;1.20;82.34;98010.28;10586993;27;20067;-77
2023/01/26 21:36:36;;;;;;;12.88;6.93;;;;;;;1.15;82.63;98009.81;10587264;27;20035;-77
2023/01/26 21:41:58;;;;;;;18.45;7.43;;;;;;;1.14;82.60;98013.09;10608375;27;20050;-77
2023/01/26 21:47:18;;;;;;;16.35;8.10;;;;;;;1.14;82.46;98013.09;10657863;27;20054;-77
2023/01/26 21:52:57;;;;;;;18.95;8.68;;;;;;;1.12;81.86;98010.13;10643266;27;20111;-77
2023/01/26 22:03:58;;;;;;;17.80;8.48;;;;;;;1.10;82.24;98015.44;10633657;27;20470;-77
2023/01/26 22:09:20;;;;;;;16.52;7.85;;;;;;;1.07;82.47;98014.47;10628300;27;20095;-77
2023/01/26 22:14:41;;;;;;;15.77;8.13;;;;;;;1.02;82.34;98006.31;10637842;27;20058;-77
2023/01/26 22:20:01;;;;;;;16.88;8.38;;;;;;;1.04;82.46;98014.75;10642141;27;20043;-77
2023/01/26 22:25:22;;;;;;;17.40;7.97;;;;;;;1.05;82.15;98005.25;10656434;27;20043;-77
2023/01/26 22:30:43;;;;;;;14.68;8.00;;;;;;;1.03;82.41;98002.28;10627643;27;20035;-76
2023/01/26 22:36:09;;;;;;;14.23;7.32;;;;;;;1.04;83.24;98009.25;10641752;27;20043;-77
2023/01/26 22:41:30;;;;;;;15.30;7.95;;;;;;;1.09;82.68;98000.19;10641347;27;20416;-77
2023/01/26 22:46:51;;;;;;;14.20;7.32;;;;;;;1.12;83.15;97999.16;10655564;27;20054;-77
2023/01/26 22:52:12;;;;;;;18.00;8.63;;;;;;;1.08;82.74;97998.72;10626518;27;20058;-77
2023/01/26 22:57:33;;;;;;;15.85;8.18;;;;;;;0.95;82.73;97987.66;10626523;27;20043;-77
2023/01/26 23:02:54;;;;;;;17.38;8.30;;;;;;;0.91;82.90;97985.22;10639688;27;20043;-77
2023/01/26 23:08:15;;;;;;;16.85;8.55;;;;;;;0.90;82.86;97991.25;10625719;27;20092;-77
2023/01/26 23:13:36;;;;;;;15.63;9.15;;;;;;;0.95;82.30;97993.16;10640389;27;20066;-77
2023/01/26 23:18:57;;;;;;;18.02;9.18;;;;;;;0.95;82.84;97991.16;10625490;27;20140;-77
2023/01/26 23:24:18;;;;;;;18.33;8.98;;;;;;;0.99;82.51;97980.59;10625410;27;20039;-77
2023/01/26 23:29:39;;;;;;;16.15;8.13;;;;;;;0.98;82.46;97992.13;10625045;27;20111;-77
2023/01/26 23:35:00;;;;;;;17.60;9.50;;;;;;;0.94;82.48;97984.19;10638986;27;20045;-77
2023/01/26 23:40:20;;;;;;;18.75;9.38;;;;;;;0.91;82.52;97990.72;10610075;27;20051;-77
2023/01/26 23:45:42;;;;;;;17.38;9.38;;;;;;;0.89;82.76;98001.50;10610203;27;20038;-77
2023/01/26 23:51:08;;;;;;;16.45;9.20;;;;;;;0.90;83.11;97997.50;10638992;27;20069;-77
2023/01/26 23:56:29;;;;;;;19.63;9.07;;;;;;;0.96;82.77;97998.13;10609672;27;20110;-77
